sensor_id;sensor_type;location;lat;lon;timestamp;temperature;humidity
71942;DHT22;59997;53.300;-6.260;2023-02-11T00:02:06;8.89;83.36
71942;DHT22;59997;53.300;-6.260;2023-02-11T00:04:32;8.87;83.40
71942;DHT22;59997;53.300;-6.260;2023-02-11T00:06:58;8.96;83.24
71942;DHT22;59997;53.300;-6.260;2023-02-11T00:09:24;8.99;83.14
71942;DHT22;59997;53.300;-6.260;2023-02-11T00:11:49;9.03;83.05
71942;DHT22;59997;53.300;-6.260;2023-02-11T00:14:15;9.08;82.97
71942;DHT22;59997;53.300;-6.260;2023-02-11T00:16:40;9.04;83.02
71942;DHT22;59997;53.300;-6.260;2023-02-11T00:19:06;9.01;83.20
71942;DHT22;59997;53.300;-6.260;2023-02-11T00:21:31;9.03;83.11
71942;DHT22;59997;53.300;-6.260;2023-02-11T00:23:58;9.06;83.27
71942;DHT22;59997;53.300;-6.260;2023-02-11T00:26:27;9.10;83.06
71942;DHT22;59997;53.300;-6.260;2023-02-11T00:28:52;9.08;83.34
71942;DHT22;59997;53.300;-6.260;2023-02-11T00:31:20;9.11;83.21
71942;DHT22;59997;53.300;-6.260;2023-02-11T00:33:46;9.08;83.32
71942;DHT22;59997;53.300;-6.260;2023-02-11T00:36:20;8.93;83.68
71942;DHT22;59997;53.300;-6.260;2023-02-11T00:38:48;8.93;83.88
71942;DHT22;59997;53.300;-6.260;2023-02-11T00:41:14;8.91;83.84
71942;DHT22;59997;53.300;-6.260;2023-02-11T00:43:40;8.89;83.93
71942;DHT22;59997;53.300;-6.260;2023-02-11T00:46:07;8.96;83.69
71942;DHT22;59997;53.300;-6.260;2023-02-11T00:48:33;8.91;83.56
71942;DHT22;59997;53.300;-6.260;2023-02-11T00:50:59;8.89;83.62
71942;DHT22;59997;53.300;-6.260;2023-02-11T00:53:24;8.93;83.45
71942;DHT22;59997;53.300;-6.260;2023-02-11T00:55:50;8.83;83.60
71942;DHT22;59997;53.300;-6.260;2023-02-11T00:58:15;8.90;83.40
71942;DHT22;59997;53.300;-6.260;2023-02-11T01:00:41;8.96;83.07
71942;DHT22;59997;53.300;-6.260;2023-02-11T01:03:07;8.97;82.91
71942;DHT22;59997;53.300;-6.260;2023-02-11T01:05:33;8.99;82.78
71942;DHT22;59997;53.300;-6.260;2023-02-11T01:07:58;8.99;82.82
71942;DHT22;59997;53.300;-6.260;2023-02-11T01:10:26;9.00;82.90
71942;DHT22;59997;53.300;-6.260;2023-02-11T01:12:52;9.03;82.74
71942;DHT22;59997;53.300;-6.260;2023-02-11T01:15:19;9.06;82.73
71942;DHT22;59997;53.300;-6.260;2023-02-11T01:17:46;8.97;82.83
71942;DHT22;59997;53.300;-6.260;2023-02-11T01:20:21;8.93;83.01
71942;DHT22;59997;53.300;-6.260;2023-02-11T01:22:47;8.81;83.26
71942;DHT22;59997;53.300;-6.260;2023-02-11T01:25:13;8.94;82.97
71942;DHT22;59997;53.300;-6.260;2023-02-11T01:27:39;8.97;83.03
71942;DHT22;59997;53.300;-6.260;2023-02-11T01:30:06;8.93;83.12
71942;DHT22;59997;53.300;-6.260;2023-02-11T01:32:33;8.87;83.43
71942;DHT22;59997;53.300;-6.260;2023-02-11T01:35:01;8.75;84.01
71942;DHT22;59997;53.300;-6.260;2023-02-11T01:37:32;8.66;84.40
71942;DHT22;59997;53.300;-6.260;2023-02-11T01:39:57;8.69;84.38
71942;DHT22;59997;53.300;-6.260;2023-02-11T01:42:22;8.62;84.56
71942;DHT22;59997;53.300;-6.260;2023-02-11T01:44:49;8.56;84.88
71942;DHT22;59997;53.300;-6.260;2023-02-11T01:47:16;8.55;84.98
71942;DHT22;59997;53.300;-6.260;2023-02-11T01:49:44;8.56;84.98
71942;DHT22;59997;53.300;-6.260;2023-02-11T01:52:22;8.55;85.01
71942;DHT22;59997;53.300;-6.260;2023-02-11T01:55:01;8.44;85.04
71942;DHT22;59997;53.300;-6.260;2023-02-11T01:57:50;8.35;85.46
71942;DHT22;59997;53.300;-6.260;2023-02-11T02:00:46;8.37;85.45
71942;DHT22;59997;53.300;-6.260;2023-02-11T02:03:34;8.38;85.43
71942;DHT22;59997;53.300;-6.260;2023-02-11T02:06:34;8.28;85.47
71942;DHT22;59997;53.300;-6.260;2023-02-11T02:09:08;8.16;85.64
71942;DHT22;59997;53.300;-6.260;2023-02-11T02:11:35;8.19;85.67
71942;DHT22;59997;53.300;-6.260;2023-02-11T02:14:01;8.11;85.65
71942;DHT22;59997;53.300;-6.260;2023-02-11T02:16:34;8.10;85.81
71942;DHT22;59997;53.300;-6.260;2023-02-11T02:26:05;7.93;86.44
71942;DHT22;59997;53.300;-6.260;2023-02-11T02:35:07;8.21;85.19
71942;DHT22;59997;53.300;-6.260;2023-02-11T02:37:16;8.31;84.86
71942;DHT22;59997;53.300;-6.260;2023-02-11T02:39:44;8.21;84.80
71942;DHT22;59997;53.300;-6.260;2023-02-11T02:42:13;8.24;84.72
71942;DHT22;59997;53.300;-6.260;2023-02-11T02:44:46;8.24;84.61
71942;DHT22;59997;53.300;-6.260;2023-02-11T02:47:11;8.26;84.60
71942;DHT22;59997;53.300;-6.260;2023-02-11T02:49:37;8.21;84.64
71942;DHT22;59997;53.300;-6.260;2023-02-11T02:52:24;8.28;84.48
71942;DHT22;59997;53.300;-6.260;2023-02-11T03:00:43;8.21;84.59
71942;DHT22;59997;53.300;-6.260;2023-02-11T03:03:32;8.17;84.73
71942;DHT22;59997;53.300;-6.260;2023-02-11T03:06:17;8.13;84.85
71942;DHT22;59997;53.300;-6.260;2023-02-11T03:08:56;8.14;84.91
71942;DHT22;59997;53.300;-6.260;2023-02-11T03:11:28;8.19;84.83
71942;DHT22;59997;53.300;-6.260;2023-02-11T03:13:54;8.19;84.75
71942;DHT22;59997;53.300;-6.260;2023-02-11T03:16:24;8.14;84.91
71942;DHT22;59997;53.300;-6.260;2023-02-11T03:19:04;8.03;84.86
71942;DHT22;59997;53.300;-6.260;2023-02-11T03:21:31;7.83;85.08
71942;DHT22;59997;53.300;-6.260;2023-02-11T03:24:05;7.78;85.42
71942;DHT22;59997;53.300;-6.260;2023-02-11T03:26:50;7.72;85.28
71942;DHT22;59997;53.300;-6.260;2023-02-11T03:29:47;7.78;85.17
71942;DHT22;59997;53.300;-6.260;2023-02-11T03:32:38;7.97;84.66
71942;DHT22;59997;53.300;-6.260;2023-02-11T03:38:02;8.21;84.03
71942;DHT22;59997;53.300;-6.260;2023-02-11T03:40:35;8.28;83.68
71942;DHT22;59997;53.300;-6.260;2023-02-11T03:43:11;8.38;83.39
71942;DHT22;59997;53.300;-6.260;2023-02-11T03:45:39;8.37;83.45
71942;DHT22;59997;53.300;-6.260;2023-02-11T03:48:27;8.38;83.51
71942;DHT22;59997;53.300;-6.260;2023-02-11T03:50:56;8.38;83.49
71942;DHT22;59997;53.300;-6.260;2023-02-11T03:53:23;8.38;83.49
71942;DHT22;59997;53.300;-6.260;2023-02-11T03:55:51;8.41;83.57
71942;DHT22;59997;53.300;-6.260;2023-02-11T03:58:19;8.49;83.54
71942;DHT22;59997;53.300;-6.260;2023-02-11T04:00:45;8.45;83.75
71942;DHT22;59997;53.300;-6.260;2023-02-11T04:03:12;8.42;83.98
71942;DHT22;59997;53.300;-6.260;2023-02-11T04:05:37;8.38;84.14
71942;DHT22;59997;53.300;-6.260;2023-02-11T04:08:04;8.38;84.29
71942;DHT22;59997;53.300;-6.260;2023-02-11T04:10:29;8.45;84.29
71942;DHT22;59997;53.300;-6.260;2023-02-11T04:12:56;8.37;84.31
71942;DHT22;59997;53.300;-6.260;2023-02-11T04:15:24;8.41;84.47
71942;DHT22;59997;53.300;-6.260;2023-02-11T04:17:49;8.42;84.54
71942;DHT22;59997;53.300;-6.260;2023-02-11T04:20:15;8.38;84.55
71942;DHT22;59997;53.300;-6.260;2023-02-11T04:22:41;8.42;84.65
71942;DHT22;59997;53.300;-6.260;2023-02-11T04:25:07;8.44;84.61
71942;DHT22;59997;53.300;-6.260;2023-02-11T04:27:33;8.40;84.60
71942;DHT22;59997;53.300;-6.260;2023-02-11T04:30:00;8.35;84.86
71942;DHT22;59997;53.300;-6.260;2023-02-11T04:32:27;8.35;84.73
71942;DHT22;59997;53.300;-6.260;2023-02-11T04:34:52;8.33;84.86
71942;DHT22;59997;53.300;-6.260;2023-02-11T04:37:20;8.38;84.73
71942;DHT22;59997;53.300;-6.260;2023-02-11T04:39:46;8.34;84.79
71942;DHT22;59997;53.300;-6.260;2023-02-11T04:42:11;8.34;84.74
71942;DHT22;59997;53.300;-6.260;2023-02-11T04:44:37;8.41;84.67
71942;DHT22;59997;53.300;-6.260;2023-02-11T04:47:03;8.35;84.73
71942;DHT22;59997;53.300;-6.260;2023-02-11T04:49:29;8.37;84.74
71942;DHT22;59997;53.300;-6.260;2023-02-11T04:51:56;8.30;84.85
71942;DHT22;59997;53.300;-6.260;2023-02-11T04:54:21;8.31;84.83
71942;DHT22;59997;53.300;-6.260;2023-02-11T04:56:48;8.35;84.86
71942;DHT22;59997;53.300;-6.260;2023-02-11T04:59:15;8.35;84.80
71942;DHT22;59997;53.300;-6.260;2023-02-11T05:01:42;8.40;84.74
71942;DHT22;59997;53.300;-6.260;2023-02-11T05:04:08;8.35;84.64
71942;DHT22;59997;53.300;-6.260;2023-02-11T05:06:33;8.38;84.62
71942;DHT22;59997;53.300;-6.260;2023-02-11T05:08:59;8.45;84.40
71942;DHT22;59997;53.300;-6.260;2023-02-11T05:11:25;8.41;84.36
71942;DHT22;59997;53.300;-6.260;2023-02-11T05:13:52;8.44;84.35
71942;DHT22;59997;53.300;-6.260;2023-02-11T05:16:17;8.44;84.40
71942;DHT22;59997;53.300;-6.260;2023-02-11T05:18:44;8.35;84.52
71942;DHT22;59997;53.300;-6.260;2023-02-11T05:21:18;8.41;84.49
71942;DHT22;59997;53.300;-6.260;2023-02-11T05:23:53;8.37;84.59
71942;DHT22;59997;53.300;-6.260;2023-02-11T05:26:19;8.42;84.49
71942;DHT22;59997;53.300;-6.260;2023-02-11T05:28:45;8.41;84.42
71942;DHT22;59997;53.300;-6.260;2023-02-11T05:31:11;8.35;84.58
71942;DHT22;59997;53.300;-6.260;2023-02-11T05:33:41;8.33;84.74
71942;DHT22;59997;53.300;-6.260;2023-02-11T05:36:10;8.38;84.68
71942;DHT22;59997;53.300;-6.260;2023-02-11T05:38:48;8.33;84.73
71942;DHT22;59997;53.300;-6.260;2023-02-11T05:41:16;8.31;84.79
71942;DHT22;59997;53.300;-6.260;2023-02-11T05:43:41;8.31;84.76
71942;DHT22;59997;53.300;-6.260;2023-02-11T05:46:08;8.30;84.79
71942;DHT22;59997;53.300;-6.260;2023-02-11T05:48:34;8.35;84.67
71942;DHT22;59997;53.300;-6.260;2023-02-11T05:51:02;8.31;84.59
71942;DHT22;59997;53.300;-6.260;2023-02-11T05:53:27;8.30;84.60
71942;DHT22;59997;53.300;-6.260;2023-02-11T05:55:53;8.35;84.33
71942;DHT22;59997;53.300;-6.260;2023-02-11T05:58:18;8.37;84.17
71942;DHT22;59997;53.300;-6.260;2023-02-11T06:00:44;8.45;83.81
71942;DHT22;59997;53.300;-6.260;2023-02-11T06:03:10;8.45;83.67
71942;DHT22;59997;53.300;-6.260;2023-02-11T06:05:37;8.49;83.59
71942;DHT22;59997;53.300;-6.260;2023-02-11T06:08:02;8.54;83.39
71942;DHT22;59997;53.300;-6.260;2023-02-11T06:10:28;8.48;83.39
71942;DHT22;59997;53.300;-6.260;2023-02-11T06:12:54;8.54;83.13
71942;DHT22;59997;53.300;-6.260;2023-02-11T06:15:19;8.55;82.97
71942;DHT22;59997;53.300;-6.260;2023-02-11T06:17:45;8.58;82.91
71942;DHT22;59997;53.300;-6.260;2023-02-11T06:20:12;8.56;82.82
71942;DHT22;59997;53.300;-6.260;2023-02-11T06:22:38;8.63;82.86
71942;DHT22;59997;53.300;-6.260;2023-02-11T06:25:04;8.66;82.62
71942;DHT22;59997;53.300;-6.260;2023-02-11T06:27:30;8.61;82.76
71942;DHT22;59997;53.300;-6.260;2023-02-11T06:29:56;8.59;82.76
71942;DHT22;59997;53.300;-6.260;2023-02-11T06:32:22;8.54;82.85
71942;DHT22;59997;53.300;-6.260;2023-02-11T06:34:47;8.54;82.89
71942;DHT22;59997;53.300;-6.260;2023-02-11T06:37:14;8.61;82.67
71942;DHT22;59997;53.300;-6.260;2023-02-11T06:39:43;8.59;82.64
71942;DHT22;59997;53.300;-6.260;2023-02-11T06:42:09;8.61;82.52
71942;DHT22;59997;53.300;-6.260;2023-02-11T06:44:36;8.65;82.31
71942;DHT22;59997;53.300;-6.260;2023-02-11T06:47:01;8.58;82.40
71942;DHT22;59997;53.300;-6.260;2023-02-11T06:49:27;8.62;82.10
71942;DHT22;59997;53.300;-6.260;2023-02-11T06:51:53;8.59;82.06
71942;DHT22;59997;53.300;-6.260;2023-02-11T06:54:18;8.56;82.09
71942;DHT22;59997;53.300;-6.260;2023-02-11T06:56:44;8.56;82.11
71942;DHT22;59997;53.300;-6.260;2023-02-11T06:59:15;8.55;81.67
71942;DHT22;59997;53.300;-6.260;2023-02-11T07:01:41;8.59;81.35
71942;DHT22;59997;53.300;-6.260;2023-02-11T07:04:07;8.69;80.90
71942;DHT22;59997;53.300;-6.260;2023-02-11T07:06:33;8.77;80.29
71942;DHT22;59997;53.300;-6.260;2023-02-11T07:08:59;8.77;80.24
71942;DHT22;59997;53.300;-6.260;2023-02-11T07:11:27;8.89;79.80
71942;DHT22;59997;53.300;-6.260;2023-02-11T07:13:55;8.93;79.17
71942;DHT22;59997;53.300;-6.260;2023-02-11T07:16:21;8.96;79.02
71942;DHT22;59997;53.300;-6.260;2023-02-11T07:18:48;9.00;78.74
71942;DHT22;59997;53.300;-6.260;2023-02-11T07:21:16;8.96;78.97
71942;DHT22;59997;53.300;-6.260;2023-02-11T07:23:42;8.93;78.89
71942;DHT22;59997;53.300;-6.260;2023-02-11T07:26:10;8.91;79.04
71942;DHT22;59997;53.300;-6.260;2023-02-11T07:28:37;8.87;79.07
71942;DHT22;59997;53.300;-6.260;2023-02-11T07:31:10;8.87;78.86
71942;DHT22;59997;53.300;-6.260;2023-02-11T07:33:36;8.89;78.82
71942;DHT22;59997;53.300;-6.260;2023-02-11T07:36:04;8.89;78.92
71942;DHT22;59997;53.300;-6.260;2023-02-11T07:38:31;8.86;78.66
71942;DHT22;59997;53.300;-6.260;2023-02-11T07:41:02;8.94;78.50
71942;DHT22;59997;53.300;-6.260;2023-02-11T07:43:30;8.94;78.27
71942;DHT22;59997;53.300;-6.260;2023-02-11T07:45:56;8.96;78.19
71942;DHT22;59997;53.300;-6.260;2023-02-11T07:48:22;8.97;78.01
71942;DHT22;59997;53.300;-6.260;2023-02-11T07:50:48;9.01;78.13
71942;DHT22;59997;53.300;-6.260;2023-02-11T07:53:15;8.97;78.12
71942;DHT22;59997;53.300;-6.260;2023-02-11T07:55:42;8.94;78.14
71942;DHT22;59997;53.300;-6.260;2023-02-11T07:58:09;8.89;78.44
71942;DHT22;59997;53.300;-6.260;2023-02-11T08:00:34;8.91;78.54
71942;DHT22;59997;53.300;-6.260;2023-02-11T08:03:00;8.93;78.59
71942;DHT22;59997;53.300;-6.260;2023-02-11T08:05:26;8.91;78.64
71942;DHT22;59997;53.300;-6.260;2023-02-11T08:07:52;8.91;78.64
71942;DHT22;59997;53.300;-6.260;2023-02-11T08:10:19;8.87;78.77
71942;DHT22;59997;53.300;-6.260;2023-02-11T08:12:47;8.89;78.77
71942;DHT22;59997;53.300;-6.260;2023-02-11T08:15:13;8.84;78.89
71942;DHT22;59997;53.300;-6.260;2023-02-11T08:17:42;8.81;79.02
71942;DHT22;59997;53.300;-6.260;2023-02-11T08:20:09;8.81;79.00
71942;DHT22;59997;53.300;-6.260;2023-02-11T08:22:36;8.79;79.10
71942;DHT22;59997;53.300;-6.260;2023-02-11T08:25:05;8.80;79.15
71942;DHT22;59997;53.300;-6.260;2023-02-11T08:27:33;8.80;78.87
71942;DHT22;59997;53.300;-6.260;2023-02-11T08:30:00;8.86;78.98
71942;DHT22;59997;53.300;-6.260;2023-02-11T08:32:26;8.96;78.53
71942;DHT22;59997;53.300;-6.260;2023-02-11T08:34:52;8.91;78.63
71942;DHT22;59997;53.300;-6.260;2023-02-11T08:37:18;8.89;79.28
71942;DHT22;59997;53.300;-6.260;2023-02-11T08:39:44;8.90;79.00
71942;DHT22;59997;53.300;-6.260;2023-02-11T08:42:14;8.94;78.54
71942;DHT22;59997;53.300;-6.260;2023-02-11T08:44:44;8.94;78.38
71942;DHT22;59997;53.300;-6.260;2023-02-11T08:47:10;8.94;78.51
71942;DHT22;59997;53.300;-6.260;2023-02-11T08:49:37;8.97;78.94
71942;DHT22;59997;53.300;-6.260;2023-02-11T08:52:03;9.00;78.76
71942;DHT22;59997;53.300;-6.260;2023-02-11T08:54:30;9.06;78.54
71942;DHT22;59997;53.300;-6.260;2023-02-11T08:56:56;9.00;78.07
71942;DHT22;59997;53.300;-6.260;2023-02-11T08:59:23;9.06;78.31
71942;DHT22;59997;53.300;-6.260;2023-02-11T09:01:49;9.11;78.03
71942;DHT22;59997;53.300;-6.260;2023-02-11T09:04:16;9.15;77.74
71942;DHT22;59997;53.300;-6.260;2023-02-11T09:06:42;9.10;78.10
71942;DHT22;59997;53.300;-6.260;2023-02-11T09:09:11;9.07;78.31
71942;DHT22;59997;53.300;-6.260;2023-02-11T09:11:38;9.04;78.26
71942;DHT22;59997;53.300;-6.260;2023-02-11T09:14:05;8.99;78.38
71942;DHT22;59997;53.300;-6.260;2023-02-11T09:16:33;9.01;78.37
71942;DHT22;59997;53.300;-6.260;2023-02-11T09:19:00;9.06;78.63
71942;DHT22;59997;53.300;-6.260;2023-02-11T09:21:26;9.04;78.41
71942;DHT22;59997;53.300;-6.260;2023-02-11T09:23:52;9.14;77.86
71942;DHT22;59997;53.300;-6.260;2023-02-11T09:26:19;9.14;77.79
71942;DHT22;59997;53.300;-6.260;2023-02-11T09:28:45;9.22;77.99
71942;DHT22;59997;53.300;-6.260;2023-02-11T09:31:15;9.24;77.72
71942;DHT22;59997;53.300;-6.260;2023-02-11T09:33:43;9.30;77.49
71942;DHT22;59997;53.300;-6.260;2023-02-11T09:36:14;9.39;76.83
71942;DHT22;59997;53.300;-6.260;2023-02-11T09:38:40;9.46;76.39
71942;DHT22;59997;53.300;-6.260;2023-02-11T09:43:45;9.60;76.69
71942;DHT22;59997;53.300;-6.260;2023-02-11T09:46:14;9.66;76.50
71942;DHT22;59997;53.300;-6.260;2023-02-11T09:48:41;9.65;75.98
71942;DHT22;59997;53.300;-6.260;2023-02-11T09:54:22;9.76;75.63
71942;DHT22;59997;53.300;-6.260;2023-02-11T09:56:50;9.86;74.99
71942;DHT22;59997;53.300;-6.260;2023-02-11T09:59:17;9.91;74.96
71942;DHT22;59997;53.300;-6.260;2023-02-11T10:01:52;10.01;74.13
71942;DHT22;59997;53.300;-6.260;2023-02-11T10:13:33;10.26;72.94
71942;DHT22;59997;53.300;-6.260;2023-02-11T10:16:13;10.29;73.62
71942;DHT22;59997;53.300;-6.260;2023-02-11T10:24:13;10.38;72.48
71942;DHT22;59997;53.300;-6.260;2023-02-11T10:26:40;10.39;71.92
71942;DHT22;59997;53.300;-6.260;2023-02-11T10:29:17;10.49;72.42
71942;DHT22;59997;53.300;-6.260;2023-02-11T10:31:46;10.48;72.96
71942;DHT22;59997;53.300;-6.260;2023-02-11T10:34:14;10.53;73.06
71942;DHT22;59997;53.300;-6.260;2023-02-11T10:36:41;10.50;73.06
71942;DHT22;59997;53.300;-6.260;2023-02-11T10:39:22;10.57;73.41
71942;DHT22;59997;53.300;-6.260;2023-02-11T10:41:56;10.63;72.70
71942;DHT22;59997;53.300;-6.260;2023-02-11T10:44:38;10.78;72.01
71942;DHT22;59997;53.300;-6.260;2023-02-11T10:47:22;10.90;71.33
71942;DHT22;59997;53.300;-6.260;2023-02-11T10:49:48;10.98;70.55
71942;DHT22;59997;53.300;-6.260;2023-02-11T10:55:13;10.98;70.81
71942;DHT22;59997;53.300;-6.260;2023-02-11T10:58:00;10.94;70.16
71942;DHT22;59997;53.300;-6.260;2023-02-11T11:03:00;11.04;68.72
71942;DHT22;59997;53.300;-6.260;2023-02-11T11:05:35;11.07;68.73
71942;DHT22;59997;53.300;-6.260;2023-02-11T11:08:06;11.04;68.88
71942;DHT22;59997;53.300;-6.260;2023-02-11T11:10:45;11.14;68.18
71942;DHT22;59997;53.300;-6.260;2023-02-11T11:13:34;11.32;68.93
71942;DHT22;59997;53.300;-6.260;2023-02-11T11:18:38;11.35;67.30
71942;DHT22;59997;53.300;-6.260;2023-02-11T11:21:12;11.35;68.15
71942;DHT22;59997;53.300;-6.260;2023-02-11T11:23:39;11.30;68.06
71942;DHT22;59997;53.300;-6.260;2023-02-11T11:26:12;11.30;67.57
71942;DHT22;59997;53.300;-6.260;2023-02-11T11:28:51;11.39;68.47
71942;DHT22;59997;53.300;-6.260;2023-02-11T11:31:24;11.52;69.71
71942;DHT22;59997;53.300;-6.260;2023-02-11T11:33:53;11.50;68.04
71942;DHT22;59997;53.300;-6.260;2023-02-11T11:36:21;11.53;68.00
71942;DHT22;59997;53.300;-6.260;2023-02-11T11:38:56;11.63;68.37
71942;DHT22;59997;53.300;-6.260;2023-02-11T11:41:24;11.73;67.11
71942;DHT22;59997;53.300;-6.260;2023-02-11T11:44:04;11.85;68.78
71942;DHT22;59997;53.300;-6.260;2023-02-11T11:46:45;12.01;67.22
71942;DHT22;59997;53.300;-6.260;2023-02-11T11:49:27;11.94;66.05
71942;DHT22;59997;53.300;-6.260;2023-02-11T11:54:33;11.89;66.25
71942;DHT22;59997;53.300;-6.260;2023-02-11T11:57:03;12.05;67.48
71942;DHT22;59997;53.300;-6.260;2023-02-11T11:59:37;12.09;66.06
71942;DHT22;59997;53.300;-6.260;2023-02-11T12:05:12;12.06;63.65
71942;DHT22;59997;53.300;-6.260;2023-02-11T12:16:56;11.99;63.25
71942;DHT22;59997;53.300;-6.260;2023-02-11T12:19:40;11.78;64.32
71942;DHT22;59997;53.300;-6.260;2023-02-11T12:31:05;11.67;66.83
71942;DHT22;59997;53.300;-6.260;2023-02-11T12:41:49;11.82;67.76
71942;DHT22;59997;53.300;-6.260;2023-02-11T12:48:11;11.63;65.41
71942;DHT22;59997;53.300;-6.260;2023-02-11T12:58:56;11.46;64.24
71942;DHT22;59997;53.300;-6.260;2023-02-11T13:01:34;11.40;63.44
71942;DHT22;59997;53.300;-6.260;2023-02-11T13:04:32;11.70;64.59
71942;DHT22;59997;53.300;-6.260;2023-02-11T13:07:04;11.57;64.16
71942;DHT22;59997;53.300;-6.260;2023-02-11T13:09:44;11.44;63.41
71942;DHT22;59997;53.300;-6.260;2023-02-11T13:12:14;11.42;62.70
71942;DHT22;59997;53.300;-6.260;2023-02-11T13:15:04;11.26;63.93
71942;DHT22;59997;53.300;-6.260;2023-02-11T13:17:45;11.16;63.71
71942;DHT22;59997;53.300;-6.260;2023-02-11T13:25:57;11.37;64.78
71942;DHT22;59997;53.300;-6.260;2023-02-11T13:28:55;11.71;65.28
71942;DHT22;59997;53.300;-6.260;2023-02-11T13:31:21;11.74;64.14
71942;DHT22;59997;53.300;-6.260;2023-02-11T13:33:51;11.88;64.33
71942;DHT22;59997;53.300;-6.260;2023-02-11T13:36:24;11.92;62.11
71942;DHT22;59997;53.300;-6.260;2023-02-11T13:39:01;11.85;61.46
71942;DHT22;59997;53.300;-6.260;2023-02-11T13:41:29;11.94;63.47
71942;DHT22;59997;53.300;-6.260;2023-02-11T13:44:04;11.89;61.28
71942;DHT22;59997;53.300;-6.260;2023-02-11T13:49:29;12.01;62.78
71942;DHT22;59997;53.300;-6.260;2023-02-11T13:52:36;12.08;63.47
71942;DHT22;59997;53.300;-6.260;2023-02-11T13:55:20;12.04;62.31
71942;DHT22;59997;53.300;-6.260;2023-02-11T14:06:36;12.22;61.93
71942;DHT22;59997;53.300;-6.260;2023-02-11T14:12:15;12.32;61.86
71942;DHT22;59997;53.300;-6.260;2023-02-11T14:15:17;12.32;61.18
71942;DHT22;59997;53.300;-6.260;2023-02-11T14:17:44;12.22;63.14
71942;DHT22;59997;53.300;-6.260;2023-02-11T14:20:34;12.18;62.80
71942;DHT22;59997;53.300;-6.260;2023-02-11T14:23:01;12.19;62.16
71942;DHT22;59997;53.300;-6.260;2023-02-11T14:25:30;12.11;60.60
71942;DHT22;59997;53.300;-6.260;2023-02-11T14:28:14;12.15;59.45
71942;DHT22;59997;53.300;-6.260;2023-02-11T14:31:19;12.12;60.32
71942;DHT22;59997;53.300;-6.260;2023-02-11T14:34:18;12.11;61.89
71942;DHT22;59997;53.300;-6.260;2023-02-11T14:36:57;12.12;61.54
71942;DHT22;59997;53.300;-6.260;2023-02-11T14:42:23;12.11;63.66
71942;DHT22;59997;53.300;-6.260;2023-02-11T14:44:54;12.05;64.35
71942;DHT22;59997;53.300;-6.260;2023-02-11T14:47:33;11.95;64.76
71942;DHT22;59997;53.300;-6.260;2023-02-11T14:50:01;11.91;63.68
71942;DHT22;59997;53.300;-6.260;2023-02-11T14:52:29;11.73;62.46
71942;DHT22;59997;53.300;-6.260;2023-02-11T14:55:33;11.62;62.87
71942;DHT22;59997;53.300;-6.260;2023-02-11T14:58:30;11.49;63.20
71942;DHT22;59997;53.300;-6.260;2023-02-11T15:00:59;11.37;62.86
71942;DHT22;59997;53.300;-6.260;2023-02-11T15:03:41;11.30;65.28
71942;DHT22;59997;53.300;-6.260;2023-02-11T15:06:24;11.29;64.09
71942;DHT22;59997;53.300;-6.260;2023-02-11T15:09:03;11.22;64.55
71942;DHT22;59997;53.300;-6.260;2023-02-11T15:11:33;11.26;64.54
71942;DHT22;59997;53.300;-6.260;2023-02-11T15:16:42;11.15;65.83
71942;DHT22;59997;53.300;-6.260;2023-02-11T15:19:31;11.14;65.75
71942;DHT22;59997;53.300;-6.260;2023-02-11T15:22:17;11.07;66.87
71942;DHT22;59997;53.300;-6.260;2023-02-11T15:27:43;11.08;67.24
71942;DHT22;59997;53.300;-6.260;2023-02-11T15:32:54;11.04;67.31
71942;DHT22;59997;53.300;-6.260;2023-02-11T15:35:27;11.00;67.34
71942;DHT22;59997;53.300;-6.260;2023-02-11T15:37:59;10.93;67.44
71942;DHT22;59997;53.300;-6.260;2023-02-11T15:40:28;10.81;68.07
71942;DHT22;59997;53.300;-6.260;2023-02-11T15:43:01;10.81;68.59
71942;DHT22;59997;53.300;-6.260;2023-02-11T15:45:40;10.85;68.65
71942;DHT22;59997;53.300;-6.260;2023-02-11T15:48:18;10.84;68.91
71942;DHT22;59997;53.300;-6.260;2023-02-11T15:50:50;10.74;69.43
71942;DHT22;59997;53.300;-6.260;2023-02-11T15:53:19;10.71;69.93
71942;DHT22;59997;53.300;-6.260;2023-02-11T15:55:45;10.69;70.07
71942;DHT22;59997;53.300;-6.260;2023-02-11T15:58:11;10.63;68.87
71942;DHT22;59997;53.300;-6.260;2023-02-11T16:00:46;10.67;69.56
71942;DHT22;59997;53.300;-6.260;2023-02-11T16:03:22;10.61;69.81
71942;DHT22;59997;53.300;-6.260;2023-02-11T16:05:48;10.53;70.48
71942;DHT22;59997;53.300;-6.260;2023-02-11T16:08:24;10.50;70.47
71942;DHT22;59997;53.300;-6.260;2023-02-11T16:11:00;10.46;69.41
71942;DHT22;59997;53.300;-6.260;2023-02-11T16:13:29;10.45;70.03
71942;DHT22;59997;53.300;-6.260;2023-02-11T16:16:02;10.39;70.82
71942;DHT22;59997;53.300;-6.260;2023-02-11T16:18:38;10.32;70.52
71942;DHT22;59997;53.300;-6.260;2023-02-11T16:21:16;10.29;70.58
71942;DHT22;59997;53.300;-6.260;2023-02-11T16:23:53;10.29;71.09
71942;DHT22;59997;53.300;-6.260;2023-02-11T16:26:31;10.26;71.32
71942;DHT22;59997;53.300;-6.260;2023-02-11T16:29:16;10.21;71.93
71942;DHT22;59997;53.300;-6.260;2023-02-11T16:31:46;10.22;71.10
71942;DHT22;59997;53.300;-6.260;2023-02-11T16:34:14;10.15;71.39
71942;DHT22;59997;53.300;-6.260;2023-02-11T16:36:42;10.12;71.67
71942;DHT22;59997;53.300;-6.260;2023-02-11T16:39:07;10.05;71.49
71942;DHT22;59997;53.300;-6.260;2023-02-11T16:41:38;10.04;70.70
71942;DHT22;59997;53.300;-6.260;2023-02-11T16:44:03;10.02;70.27
71942;DHT22;59997;53.300;-6.260;2023-02-11T16:46:31;10.01;70.20
71942;DHT22;59997;53.300;-6.260;2023-02-11T16:49:44;9.98;70.99
71942;DHT22;59997;53.300;-6.260;2023-02-11T16:51:53;9.98;71.30
71942;DHT22;59997;53.300;-6.260;2023-02-11T16:54:22;9.94;71.50
71942;DHT22;59997;53.300;-6.260;2023-02-11T16:56:49;9.87;70.06
71942;DHT22;59997;53.300;-6.260;2023-02-11T16:59:14;9.91;68.54
71942;DHT22;59997;53.300;-6.260;2023-02-11T17:01:41;9.97;68.92
71942;DHT22;59997;53.300;-6.260;2023-02-11T17:04:16;9.86;69.97
71942;DHT22;59997;53.300;-6.260;2023-02-11T17:06:44;9.86;70.30
71942;DHT22;59997;53.300;-6.260;2023-02-11T17:09:35;9.79;70.01
71942;DHT22;59997;53.300;-6.260;2023-02-11T17:12:01;9.83;69.52
71942;DHT22;59997;53.300;-6.260;2023-02-11T17:14:26;9.76;69.38
71942;DHT22;59997;53.300;-6.260;2023-02-11T17:16:53;9.79;69.14
71942;DHT22;59997;53.300;-6.260;2023-02-11T17:19:19;9.76;68.29
71942;DHT22;59997;53.300;-6.260;2023-02-11T17:21:51;9.76;69.07
71942;DHT22;59997;53.300;-6.260;2023-02-11T17:24:19;9.67;69.29
71942;DHT22;59997;53.300;-6.260;2023-02-11T17:26:45;9.59;70.36
71942;DHT22;59997;53.300;-6.260;2023-02-11T17:29:13;9.55;70.55
71942;DHT22;59997;53.300;-6.260;2023-02-11T17:31:39;9.52;70.80
71942;DHT22;59997;53.300;-6.260;2023-02-11T17:34:08;9.50;71.34
71942;DHT22;59997;53.300;-6.260;2023-02-11T17:36:33;9.48;70.91
71942;DHT22;59997;53.300;-6.260;2023-02-11T17:39:00;9.45;70.48
71942;DHT22;59997;53.300;-6.260;2023-02-11T17:41:26;9.52;69.56
71942;DHT22;59997;53.300;-6.260;2023-02-11T17:43:52;9.49;69.75
71942;DHT22;59997;53.300;-6.260;2023-02-11T17:46:17;9.52;69.41
71942;DHT22;59997;53.300;-6.260;2023-02-11T17:48:43;9.56;69.15
71942;DHT22;59997;53.300;-6.260;2023-02-11T17:51:33;9.56;69.25
71942;DHT22;59997;53.300;-6.260;2023-02-11T17:54:02;9.46;69.74